createdAt,value
2019-05-21T00:00:40.066Z,100191.72
2019-05-21T00:03:43.764Z,100187.34
2019-05-21T00:06:47.466Z,100190.28
2019-05-21T00:09:51.166Z,100184.53
2019-05-21T00:12:54.866Z,100195.83
2019-05-21T00:15:58.561Z,100195.55
2019-05-21T00:19:02.272Z,100197.22
2019-05-21T00:22:06.346Z,100203.09
2019-05-21T00:25:10.278Z,100202.82
2019-05-21T00:28:37.465Z,100198.72
2019-05-21T00:32:17.377Z,100197.31
2019-05-21T00:35:57.720Z,100197.74
2019-05-21T00:39:37.388Z,100197.10
2019-05-21T00:42:44.540Z,100188.95
2019-05-21T00:45:48.238Z,100192.48
2019-05-21T00:48:52.019Z,100195.77
2019-05-21T00:52:07.001Z,100197.26
2019-05-21T00:55:01.218Z,100191.45
2019-05-21T00:58:04.909Z,100193.13
2019-05-21T01:01:08.600Z,100201.15
2019-05-21T01:04:12.694Z,100204.92
2019-05-21T01:07:16.394Z,100196.58
2019-05-21T01:10:20.091Z,100199.53
2019-05-21T01:13:23.853Z,100194.39
2019-05-21T01:16:27.556Z,100187.70
2019-05-21T01:19:31.255Z,100185.63
2019-05-21T01:22:34.963Z,100183.66
2019-05-21T01:25:38.669Z,100185.33
2019-05-21T01:28:42.776Z,100184.23
2019-05-21T01:31:46.473Z,100190.50
2019-05-21T01:34:50.557Z,100195.25
2019-05-21T01:37:54.546Z,100194.38
2019-05-21T01:40:58.585Z,100201.90
2019-05-21T01:44:02.728Z,100204.78
2019-05-21T01:47:06.623Z,100201.73
2019-05-21T01:50:10.886Z,100205.27
2019-05-21T01:53:14.552Z,100203.20
2019-05-21T01:56:18.328Z,100203.20
2019-05-21T01:59:22.034Z,100205.48
2019-05-21T02:02:25.736Z,100208.80
2019-05-21T02:05:33.045Z,100205.34
2019-05-21T02:08:35.581Z,100200.94
2019-05-21T02:11:39.619Z,100204.59
2019-05-21T02:14:43.331Z,100203.97
2019-05-21T02:17:47.037Z,100209.48
2019-05-21T02:20:50.751Z,100215.20
2019-05-21T02:23:54.454Z,100215.48
2019-05-21T02:26:58.160Z,100221.56
2019-05-21T02:30:02.049Z,100214.72
2019-05-21T02:33:06.239Z,100221.04
2019-05-21T02:36:10.004Z,100224.93
2019-05-21T02:39:13.788Z,100217.47
2019-05-21T02:42:17.497Z,100221.48
2019-05-21T02:45:21.462Z,100219.41
2019-05-21T02:48:25.244Z,100223.47
2019-05-21T02:51:28.958Z,100216.02
2019-05-21T02:54:40.992Z,100220.51
2019-05-21T02:57:39.612Z,100221.84
2019-05-21T03:01:01.120Z,100223.47
2019-05-21T03:04:05.192Z,100221.00
2019-05-21T03:07:18.100Z,100222.30
2019-05-21T03:10:21.783Z,100207.75
2019-05-21T03:13:25.505Z,100208.47
2019-05-21T03:16:29.232Z,100207.58
2019-05-21T03:19:33.009Z,100219.04
2019-05-21T03:22:36.907Z,100210.66
2019-05-21T03:25:41.170Z,100213.78
2019-05-21T03:28:44.892Z,100213.16
2019-05-21T03:31:48.607Z,100221.11
2019-05-21T03:34:52.471Z,100216.89
2019-05-21T03:37:56.626Z,100223.36
2019-05-21T03:41:00.634Z,100226.73
2019-05-21T03:44:04.428Z,100231.75
2019-05-21T03:47:08.144Z,100222.23
2019-05-21T03:50:12.163Z,100225.16
2019-05-21T03:53:15.880Z,100229.32
2019-05-21T03:56:19.594Z,100236.38
2019-05-21T03:59:23.309Z,100227.27
2019-05-21T04:02:27.034Z,100230.84
2019-05-21T04:05:30.816Z,100230.11
2019-05-21T04:08:34.532Z,100231.69
2019-05-21T04:11:38.545Z,100231.64
2019-05-21T04:14:46.604Z,100232.25
2019-05-21T04:17:56.436Z,100246.70
2019-05-21T04:21:00.163Z,100254.01
2019-05-21T04:24:08.317Z,100263.30
2019-05-21T04:27:09.643Z,100268.78
2019-05-21T04:30:13.682Z,100283.42
2019-05-21T04:33:17.405Z,100295.09
2019-05-21T04:36:21.181Z,100290.88
2019-05-21T04:39:25.312Z,100280.97
2019-05-21T04:42:29.003Z,100287.91
2019-05-21T04:45:32.729Z,100290.64
2019-05-21T04:48:36.461Z,100284.99
2019-05-21T04:51:40.170Z,100274.53
2019-05-21T04:54:43.968Z,100276.54
2019-05-21T04:57:47.671Z,100269.85
2019-05-21T05:00:51.458Z,100273.06
2019-05-21T05:03:55.168Z,100270.82
2019-05-21T05:06:58.901Z,100272.79
2019-05-21T05:10:02.679Z,100268.14
2019-05-21T05:13:06.378Z,100270.44
2019-05-21T05:16:10.084Z,100267.31
2019-05-21T05:19:13.868Z,100271.80
2019-05-21T05:22:17.617Z,100273.50
2019-05-21T05:25:21.390Z,100269.85
2019-05-21T05:28:25.106Z,100276.10
2019-05-21T05:31:28.853Z,100282.55
2019-05-21T05:34:32.827Z,100288.20
2019-05-21T05:37:44.095Z,100292.72
2019-05-21T05:40:41.963Z,100292.56
2019-05-21T05:43:45.667Z,100303.17
2019-05-21T05:46:49.404Z,100301.13
2019-05-21T05:49:54.887Z,100295.50
2019-05-21T05:52:58.609Z,100300.80
2019-05-21T05:56:02.312Z,100307.72
2019-05-21T05:59:06.005Z,100295.52
2019-05-21T06:02:09.707Z,100301.95
2019-05-21T06:05:13.954Z,100304.98
2019-05-21T06:08:17.664Z,100302.68
2019-05-21T06:11:21.355Z,100304.94
2019-05-21T06:14:25.460Z,100302.98
2019-05-21T06:17:29.141Z,100299.27
2019-05-21T06:20:33.180Z,100295.58
2019-05-21T06:23:36.873Z,100298.59
2019-05-21T06:26:40.675Z,100307.47
2019-05-21T06:29:44.379Z,100313.30
2019-05-21T06:32:48.159Z,100311.73
2019-05-21T06:35:51.865Z,100310.51
2019-05-21T06:38:55.619Z,100304.73
2019-05-21T06:41:59.313Z,100315.88
2019-05-21T06:45:03.499Z,100320.23
2019-05-21T06:48:07.435Z,100320.00
2019-05-21T06:51:11.132Z,100331.36
2019-05-21T06:54:14.841Z,100330.39
2019-05-21T06:57:18.686Z,100335.31
2019-05-21T07:00:22.501Z,100337.98
2019-05-21T07:03:26.625Z,100331.34
2019-05-21T07:06:30.353Z,100333.27
2019-05-21T07:09:34.128Z,100342.11
2019-05-21T07:12:38.409Z,100339.48
2019-05-21T07:15:42.503Z,100339.55
2019-05-21T07:18:46.627Z,100340.77
2019-05-21T07:21:50.403Z,100346.61
2019-05-21T07:24:54.197Z,100345.78
2019-05-21T07:27:57.901Z,100347.12
2019-05-21T07:31:01.616Z,100359.58
2019-05-21T07:34:05.476Z,100361.88
2019-05-21T07:37:09.506Z,100365.34
2019-05-21T07:40:14.481Z,100358.10
2019-05-21T07:43:18.199Z,100370.77
2019-05-21T07:46:21.970Z,100375.66
2019-05-21T07:49:25.680Z,100379.50
2019-05-21T07:52:30.072Z,100385.48
2019-05-21T07:55:34.247Z,100377.91
2019-05-21T07:58:37.987Z,100378.16
2019-05-21T08:01:41.704Z,100389.66
2019-05-21T08:04:45.415Z,100382.00
2019-05-21T08:07:49.469Z,100388.61
2019-05-21T08:10:53.257Z,100384.25
2019-05-21T08:13:57.570Z,100387.47
2019-05-21T08:17:01.290Z,100387.95
2019-05-21T08:20:09.851Z,100385.16
2019-05-21T08:23:11.580Z,100387.13
2019-05-21T08:26:15.781Z,100385.59
2019-05-21T08:29:19.508Z,100389.27
2019-05-21T08:32:23.205Z,100386.39
2019-05-21T08:35:26.932Z,100390.34
2019-05-21T08:38:30.628Z,100387.47
2019-05-21T08:41:34.347Z,100386.63
2019-05-21T08:44:38.052Z,100393.80
2019-05-21T08:47:41.838Z,100391.98
2019-05-21T08:50:45.583Z,100396.53
2019-05-21T08:53:49.248Z,100396.39
2019-05-21T08:56:52.963Z,100402.32
2019-05-21T08:59:56.660Z,100400.55
2019-05-21T09:03:00.387Z,100405.70
2019-05-21T09:06:04.191Z,100408.69
2019-05-21T09:09:08.042Z,100407.30
2019-05-21T09:12:11.823Z,100406.34
2019-05-21T09:15:15.874Z,100417.26
2019-05-21T09:18:19.593Z,100412.22
2019-05-21T09:21:23.384Z,100414.75
2019-05-21T09:24:27.083Z,100414.73
2019-05-21T09:27:30.821Z,100417.01
2019-05-21T09:30:34.589Z,100424.36
2019-05-21T09:33:38.305Z,100421.71
2019-05-21T09:36:42.015Z,100428.19
2019-05-21T09:39:45.720Z,100429.89
2019-05-21T09:42:49.433Z,100438.16
2019-05-21T09:45:53.136Z,100435.36
2019-05-21T09:48:56.852Z,100437.56
2019-05-21T09:52:00.569Z,100441.32
2019-05-21T09:55:04.653Z,100435.11
2019-05-21T09:58:33.579Z,100435.53
2019-05-21T10:01:47.447Z,100441.05
2019-05-21T10:04:48.834Z,100446.01
2019-05-21T10:07:52.544Z,100453.95
2019-05-21T10:10:56.238Z,100446.84
2019-05-21T10:13:59.945Z,100454.88
2019-05-21T10:17:03.731Z,100458.17
2019-05-21T10:20:07.952Z,100458.66
2019-05-21T10:23:11.658Z,100462.62
2019-05-21T10:26:15.606Z,100461.51
2019-05-21T10:29:19.364Z,100467.54
2019-05-21T10:32:23.049Z,100458.17
2019-05-21T10:35:26.763Z,100458.89
2019-05-21T10:38:30.534Z,100457.54
2019-05-21T10:41:34.261Z,100462.72
2019-05-21T10:44:38.393Z,100467.48
2019-05-21T10:47:42.282Z,100473.91
2019-05-21T10:50:46.007Z,100467.86
2019-05-21T10:53:49.727Z,100473.70
2019-05-21T10:56:53.452Z,100467.70
2019-05-21T10:59:57.158Z,100470.11
2019-05-21T11:03:14.373Z,100474.53
2019-05-21T11:06:18.088Z,100475.71
2019-05-21T11:09:22.312Z,100469.45
2019-05-21T11:12:26.230Z,100477.32
2019-05-21T11:15:29.962Z,100482.28
2019-05-21T11:18:34.034Z,100493.28
2019-05-21T11:21:38.010Z,100489.23
2019-05-21T11:24:41.718Z,100494.39
2019-05-21T11:27:45.451Z,100494.02
2019-05-21T11:30:49.451Z,100496.70
2019-05-21T11:33:53.329Z,100495.84
2019-05-21T11:36:57.045Z,100502.86
2019-05-21T11:40:00.823Z,100509.25
2019-05-21T11:43:04.851Z,100503.97
2019-05-21T11:46:08.665Z,100503.88
2019-05-21T11:49:12.455Z,100508.03
2019-05-21T11:52:16.177Z,100506.04
2019-05-21T11:55:19.958Z,100515.28
2019-05-21T11:58:23.823Z,100515.69
2019-05-21T12:01:27.893Z,100512.89
2019-05-21T12:04:31.605Z,100510.66
2019-05-21T12:07:35.307Z,100514.04
2019-05-21T12:10:39.266Z,100513.88
2019-05-21T12:13:42.997Z,100515.95
2019-05-21T12:16:46.715Z,100516.23
2019-05-21T12:19:50.438Z,100513.23
2019-05-21T12:22:54.170Z,100520.73
2019-05-21T12:25:58.340Z,100520.83
2019-05-21T12:29:02.687Z,100517.98
2019-05-21T12:32:06.394Z,100521.27
2019-05-21T12:35:10.350Z,100521.69
2019-05-21T12:38:14.056Z,100524.36
2019-05-21T12:41:17.797Z,100517.59
2019-05-21T12:44:21.816Z,100521.40
2019-05-21T12:47:25.925Z,100521.61
2019-05-21T12:50:29.764Z,100517.80
2019-05-21T12:53:33.555Z,100517.79
2019-05-21T12:56:40.647Z,100522.91
2019-05-21T12:59:42.713Z,100514.54
2019-05-21T13:02:46.559Z,100514.94
2019-05-21T13:05:50.527Z,100522.13
2019-05-21T13:08:54.256Z,100529.28
2019-05-21T13:11:57.949Z,100534.23
2019-05-21T13:15:01.659Z,100534.08
2019-05-21T13:18:05.932Z,100537.17
2019-05-21T13:21:09.630Z,100542.85
2019-05-21T13:24:13.498Z,100538.95
2019-05-21T13:27:17.267Z,100543.73
2019-05-21T13:30:21.915Z,100549.51
2019-05-21T13:33:25.698Z,100545.86
2019-05-21T13:36:29.414Z,100542.20
2019-05-21T13:39:48.914Z,100550.77
2019-05-21T13:42:38.754Z,100553.00
2019-05-21T13:45:42.458Z,100553.21
2019-05-21T13:48:47.087Z,100553.16
2019-05-21T13:51:51.099Z,100554.50
2019-05-21T13:54:54.790Z,100562.11
2019-05-21T13:57:58.879Z,100562.23
2019-05-21T14:01:02.935Z,100556.17
2019-05-21T14:04:06.916Z,100558.94
2019-05-21T14:07:10.813Z,100555.72
2019-05-21T14:10:19.975Z,100562.19
2019-05-21T14:13:20.570Z,100564.70
2019-05-21T14:16:24.398Z,100563.56
2019-05-21T14:19:28.764Z,100568.31
2019-05-21T14:22:36.430Z,100578.79
2019-05-21T14:25:37.910Z,100579.61
2019-05-21T14:28:41.658Z,100580.42
2019-05-21T14:31:45.369Z,100582.92
2019-05-21T14:35:01.003Z,100574.81
2019-05-21T14:37:54.515Z,100579.37
2019-05-21T14:40:58.213Z,100578.88
2019-05-21T14:44:02.556Z,100575.66
2019-05-21T14:47:06.658Z,100574.43
2019-05-21T14:50:10.848Z,100574.12
2019-05-21T14:53:14.870Z,100575.72
2019-05-21T14:56:18.606Z,100574.98
2019-05-21T14:59:22.318Z,100573.34
2019-05-21T15:02:26.071Z,100577.11
2019-05-21T15:05:30.675Z,100575.91
2019-05-21T15:08:34.714Z,100577.42
2019-05-21T15:11:38.439Z,100578.58
2019-05-21T15:14:42.265Z,100582.24
2019-05-21T15:17:45.994Z,100580.50
2019-05-21T15:20:57.866Z,100582.44
2019-05-21T15:24:02.815Z,100584.55
2019-05-21T15:27:06.749Z,100582.88
2019-05-21T15:30:11.551Z,100578.16
2019-05-21T15:33:15.277Z,100579.20
2019-05-21T15:36:19.078Z,100582.81
2019-05-21T15:39:22.780Z,100586.00
2019-05-21T15:42:26.579Z,100584.07
2019-05-21T15:45:30.289Z,100590.81
2019-05-21T15:48:34.006Z,100596.70
2019-05-21T15:51:37.716Z,100596.23
2019-05-21T15:54:41.687Z,100601.89
2019-05-21T15:57:45.429Z,100603.27
2019-05-21T16:00:49.569Z,100603.27
2019-05-21T16:03:53.272Z,100609.28
2019-05-21T16:06:57.761Z,100610.70
2019-05-21T16:10:01.480Z,100619.87
2019-05-21T16:13:05.278Z,100627.34
2019-05-21T16:16:09.358Z,100629.22
2019-05-21T16:19:13.370Z,100631.79
2019-05-21T16:22:17.086Z,100628.47
2019-05-21T16:25:21.206Z,100630.56
2019-05-21T16:28:24.919Z,100629.22
2019-05-21T16:31:28.803Z,100632.80
2019-05-21T16:34:32.548Z,100633.78
2019-05-21T16:37:36.527Z,100631.41
2019-05-21T16:40:40.261Z,100636.07
2019-05-21T16:43:44.671Z,100627.48
2019-05-21T16:46:48.483Z,100637.77
2019-05-21T16:49:52.778Z,100641.67
2019-05-21T16:52:56.578Z,100638.73
2019-05-21T16:56:00.832Z,100638.14
2019-05-21T16:59:04.654Z,100640.50
2019-05-21T17:02:08.424Z,100642.36
2019-05-21T17:05:13.847Z,100646.05
2019-05-21T17:08:17.573Z,100645.39
2019-05-21T17:11:21.300Z,100650.33
2019-05-21T17:14:25.015Z,100644.72
2019-05-21T17:17:28.754Z,100646.84
2019-05-21T17:20:34.258Z,100651.77
2019-05-21T17:23:38.604Z,100650.80
2019-05-21T17:26:43.077Z,100650.05
2019-05-21T17:29:47.181Z,100659.61
2019-05-21T17:32:50.900Z,100661.09
2019-05-21T17:35:54.684Z,100657.95
2019-05-21T17:38:58.453Z,100658.65
2019-05-21T17:42:14.754Z,100660.73
2019-05-21T17:45:07.871Z,100659.11
2019-05-21T17:48:11.793Z,100660.69
2019-05-21T17:51:15.501Z,100672.38
2019-05-21T17:54:19.306Z,100668.09
2019-05-21T17:57:23.414Z,100678.77
2019-05-21T18:00:44.848Z,100673.53
2019-05-21T18:03:49.109Z,100672.83
2019-05-21T18:06:52.973Z,100685.53
2019-05-21T18:09:56.966Z,100685.31
2019-05-21T18:13:00.956Z,100691.98
2019-05-21T18:16:06.104Z,100684.45
2019-05-21T18:19:10.504Z,100687.47
2019-05-21T18:22:18.263Z,100685.41
2019-05-21T18:25:23.404Z,100693.85
2019-05-21T18:28:27.306Z,100689.70
2019-05-21T18:31:31.022Z,100698.23
2019-05-21T18:34:34.834Z,100706.30
2019-05-21T18:37:39.138Z,100708.42
2019-05-21T18:40:43.144Z,100718.66
2019-05-21T18:43:49.865Z,100720.04
2019-05-21T18:46:52.454Z,100723.34
2019-05-21T18:49:56.218Z,100726.70
2019-05-21T18:53:00.375Z,100739.30
2019-05-21T18:56:04.532Z,100742.25
2019-05-21T18:59:08.548Z,100748.40
2019-05-21T19:02:14.596Z,100750.68
2019-05-21T19:05:18.413Z,100754.91
2019-05-21T19:08:22.218Z,100755.64
2019-05-21T19:11:26.345Z,100763.19
2019-05-21T19:14:30.162Z,100767.25
2019-05-21T19:17:35.867Z,100768.05
2019-05-21T19:20:39.558Z,100771.06
2019-05-21T19:23:43.809Z,100773.67
2019-05-21T19:26:47.542Z,100773.91
2019-05-21T19:29:52.432Z,100771.77
2019-05-21T19:32:56.247Z,100772.34
2019-05-21T19:36:00.306Z,100772.77
2019-05-21T19:39:05.193Z,100779.39
2019-05-21T19:42:09.621Z,100776.85
2019-05-21T19:45:13.946Z,100775.28
2019-05-21T19:48:18.037Z,100780.09
2019-05-21T19:51:21.814Z,100777.67
2019-05-21T19:54:25.625Z,100775.77
2019-05-21T19:57:30.818Z,100780.67
2019-05-21T20:00:39.129Z,100777.56
2019-05-21T20:03:43.370Z,100774.81
2019-05-21T20:06:47.580Z,100780.05
2019-05-21T20:09:51.977Z,100782.19
2019-05-21T20:12:55.823Z,100783.05
2019-05-21T20:16:00.991Z,100784.38
2019-05-21T20:19:06.069Z,100773.02
2019-05-21T20:22:11.446Z,100781.56
2019-05-21T20:25:16.592Z,100779.53
2019-05-21T20:28:20.690Z,100781.72
2019-05-21T20:31:24.927Z,100782.30
2019-05-21T20:34:29.065Z,100782.19
2019-05-21T20:37:34.399Z,100785.71
2019-05-21T20:40:38.737Z,100787.75
2019-05-21T20:43:56.841Z,100799.05
2019-05-21T20:46:49.084Z,100801.47
2019-05-21T20:49:52.815Z,100799.05
2019-05-21T20:52:57.251Z,100802.52
2019-05-21T20:56:01.442Z,100806.08
2019-05-21T20:59:06.435Z,100807.44
2019-05-21T21:02:11.876Z,100806.66
2019-05-21T21:05:16.578Z,100807.58
2019-05-21T21:08:20.601Z,100810.23
2019-05-21T21:11:25.886Z,100813.36
2019-05-21T21:14:30.190Z,100820.52
2019-05-21T21:17:33.983Z,100832.81
2019-05-21T21:20:38.327Z,100828.26
2019-05-21T21:23:42.883Z,100840.70
2019-05-21T21:26:46.859Z,100833.52
2019-05-21T21:29:51.180Z,100828.97
2019-05-21T21:32:56.645Z,100831.20
2019-05-21T21:36:00.371Z,100824.19
2019-05-21T21:39:06.355Z,100811.48
2019-05-21T21:42:10.313Z,100814.22
2019-05-21T21:45:14.661Z,100828.19
2019-05-21T21:48:18.524Z,100825.20
2019-05-21T21:51:22.842Z,100815.50
2019-05-21T21:54:26.983Z,100812.93
2019-05-21T21:57:30.688Z,100816.79
2019-05-21T22:01:31.183Z,100820.89
2019-05-21T22:04:36.437Z,100828.30
2019-05-21T22:07:40.485Z,100825.12
2019-05-21T22:10:47.688Z,100835.73
2019-05-21T22:13:51.850Z,100841.47
2019-05-21T22:16:55.923Z,100842.94
2019-05-21T22:19:59.896Z,100844.09
2019-05-21T22:23:03.828Z,100848.09
2019-05-21T22:26:07.588Z,100849.07
2019-05-21T22:29:12.523Z,100861.05
2019-05-21T22:32:16.842Z,100860.41
2019-05-21T22:35:20.688Z,100863.59
2019-05-21T22:38:24.453Z,100867.27
2019-05-21T22:41:28.577Z,100871.79
2019-05-21T22:44:33.064Z,100865.17
2019-05-21T22:47:37.031Z,100867.02
2019-05-21T22:50:40.810Z,100860.97
2019-05-21T22:53:44.586Z,100862.98
2019-05-21T22:56:48.476Z,100860.80
2019-05-21T22:59:52.270Z,100865.73
2019-05-21T23:02:56.425Z,100855.66
2019-05-21T23:06:00.196Z,100857.77
2019-05-21T23:09:05.282Z,100856.78
2019-05-21T23:12:09.267Z,100855.02
2019-05-21T23:15:24.308Z,100860.73
2019-05-21T23:18:19.671Z,100850.09
2019-05-21T23:21:23.808Z,100859.89
2019-05-21T23:24:29.759Z,100867.44
2019-05-21T23:27:34.131Z,100871.05
2019-05-21T23:30:38.213Z,100871.86
2019-05-21T23:33:42.087Z,100878.80
2019-05-21T23:36:47.990Z,100875.14
2019-05-21T23:39:52.892Z,100876.38
2019-05-21T23:42:57.198Z,100879.69
2019-05-21T23:46:01.265Z,100872.98
2019-05-21T23:49:05.346Z,100878.69
2019-05-21T23:52:09.641Z,100880.59
2019-05-21T23:55:14.763Z,100885.69
2019-05-21T23:58:18.954Z,100881.16
